KLAW/LAW METAR and TAF weather

Enter ICAO airport designator
Station Type Date Time Source
KLAW METAR 2018/12/13 19:53 UTC NOAA

KLAW 131953Z 36033G40KT 10SM OVC047 07/03 A2978 RMK AO2 PK WND 01043/1857 LTG DSNT E AND SE SLP086 T00720033


Station Type Date Time Source
KLAW Decoded METAR 2018/12/13 19:53 UTC NOAA

LAWTON - FORT SILL REGIONAL, OK, United States (KLAW) 34-34N 98-25W 337M
Dec 13, 2018 - 02:53 PM EST / 2018.12.13 1953 UTC
Wind: from the N (360 degrees) at 38 MPH (33 KT) gusting to 46 MPH (40 KT):0
Visibility: 10 mile(s):0
Sky conditions: overcast
Weather: Lightning observed
Temperature: 45.0 F (7.2 C)
Dew Point: 37.9 F (3.3 C)
Relative Humidity: 76%
Pressure (altimeter): 29.78 in. Hg (1008 hPa)
ob: KLAW 131953Z 36033G40KT 10SM OVC047 07/03 A2978 RMK AO2 PK WND 01043/1857 LTG DSNT E AND SE SLP086 T00720033
cycle: 20

Station Type Date Time Source
KLAW TAF 2018/12/13 18:42 UTC NOAA

TAF KLAW 131741Z 1318/1418 36030G40KT P6SM OVC030
TEMPO 1319/1323 3SM -RA BR OVC018
FM132300 36037G48KT 3SM -RA BR OVC015
FM141000 35032G42KT P6SM OVC025
FM141600 36028G38KT P6SM SCT250


Example: see airport list